Time;durP1;ratioP1;P1;durP2;ratioP2;P2;SDS_P1;SDS_P2;PMS_P1;PMS_P2;Temp;Humidity;BMP_temperature;BMP_pressure;BME280_temperature;BME280_humidity;BME280_pressure;Samples;Min_cycle;Max_cycle;Signal;HPM_P1;HPM_P2
2022/10/15 00:01:15;;;;;;;14.07;5.90;;;;;;;12.52;100.00;100361.38;4955526;29;20371;-72
2022/10/15 00:03:42;;;;;;;16.10;6.38;;;;;;;12.52;100.00;100354.09;4938061;29;20031;-72
2022/10/15 00:06:11;;;;;;;19.08;6.38;;;;;;;12.51;100.00;100348.91;4937683;29;20105;-72
2022/10/15 00:08:36;;;;;;;18.00;6.40;;;;;;;12.38;100.00;100323.75;4922733;29;20032;-72
2022/10/15 00:11:08;;;;;;;18.02;6.43;;;;;;;12.50;100.00;100339.19;4955291;29;20064;-72
2022/10/15 00:13:35;;;;;;;14.02;6.15;;;;;;;12.50;100.00;100334.59;4955214;29;20397;-71
2022/10/15 00:16:01;;;;;;;24.17;7.85;;;;;;;12.48;100.00;100336.69;4955298;29;20032;-71
2022/10/15 00:18:26;;;;;;;18.88;6.70;;;;;;;12.42;100.00;100321.41;4937580;29;20549;-72
2022/10/15 00:20:51;;;;;;;18.02;7.65;;;;;;;12.46;100.00;100326.13;4955191;28;20047;-72
2022/10/15 00:23:17;;;;;;;16.00;7.18;;;;;;;12.45;100.00;100329.88;4937957;29;20130;-72
2022/10/15 00:25:42;;;;;;;21.00;7.85;;;;;;;12.43;100.00;100329.28;4937820;29;20051;-72
2022/10/15 00:28:08;;;;;;;19.50;7.75;;;;;;;12.38;100.00;100334.53;4921604;29;20079;-72
2022/10/15 00:30:33;;;;;;;20.38;7.90;;;;;;;12.27;100.00;100302.03;4935670;29;20298;-72
2022/10/15 00:32:59;;;;;;;17.25;8.80;;;;;;;12.41;100.00;100314.34;4935789;29;20054;-72
2022/10/15 00:35:24;;;;;;;16.33;7.55;;;;;;;12.38;100.00;100312.09;4935700;29;20059;-72
2022/10/15 00:37:50;;;;;;;19.10;8.13;;;;;;;12.37;100.00;100321.25;4935727;29;20032;-72
2022/10/15 00:40:16;;;;;;;19.50;8.80;;;;;;;12.37;100.00;100316.66;4934775;29;20032;-70
2022/10/15 00:42:41;;;;;;;22.48;8.95;;;;;;;12.37;100.00;100305.06;4918504;29;20087;-71
2022/10/15 00:45:12;;;;;;;16.17;8.60;;;;;;;12.42;100.00;100307.94;4918489;29;20035;-71
2022/10/15 00:47:44;;;;;;;27.17;10.00;;;;;;;12.42;100.00;100297.13;4918342;29;20067;-70
2022/10/15 00:50:22;;;;;;;24.75;10.32;;;;;;;12.41;100.00;100298.97;4935528;29;20054;-71
2022/10/15 00:53:02;;;;;;;22.75;11.02;;;;;;;12.36;100.00;100295.31;4918127;29;20035;-71
2022/10/15 00:55:31;;;;;;;23.60;11.30;;;;;;;12.35;100.00;100293.66;4935383;29;20108;-71
2022/10/15 00:58:05;;;;;;;24.40;11.23;;;;;;;12.38;100.00;100294.06;4935468;29;20501;-71
2022/10/15 01:00:30;;;;;;;22.60;12.47;;;;;;;12.28;100.00;100279.41;4935193;29;20043;-71
2022/10/15 01:02:56;;;;;;;29.08;13.00;;;;;;;12.40;100.00;100288.41;4899205;29;20032;-71
2022/10/15 01:05:23;;;;;;;21.95;12.65;;;;;;;12.41;100.00;100285.47;4892822;29;20039;-71
2022/10/15 01:07:48;;;;;;;22.58;12.95;;;;;;;12.26;100.00;100258.06;4935078;29;20502;-71
2022/10/15 01:10:15;;;;;;;25.35;13.52;;;;;;;12.41;100.00;100280.09;4917997;29;20447;-71
2022/10/15 01:12:52;;;;;;;23.45;13.80;;;;;;;12.46;100.00;100271.34;4935093;29;20115;-71
2022/10/15 01:15:32;;;;;;;26.02;13.45;;;;;;;12.49;100.00;100264.69;4935003;29;20039;-71
2022/10/15 01:18:03;;;;;;;26.15;14.00;;;;;;;12.49;100.00;100265.50;4934924;29;20026;-71
2022/10/15 01:21:03;;;;;;;29.00;15.20;;;;;;;12.51;100.00;100262.56;4934731;29;20035;-71
2022/10/15 01:23:45;;;;;;;30.08;15.60;;;;;;;12.51;100.00;100252.59;4916905;29;20040;-71
2022/10/15 01:26:48;;;;;;;28.83;16.33;;;;;;;12.51;100.00;100247.19;4934892;29;20035;-71
2022/10/15 01:29:23;;;;;;;28.80;15.98;;;;;;;12.55;100.00;100237.63;4888574;29;20043;-70
2022/10/15 01:32:11;;;;;;;35.92;18.27;;;;;;;12.56;100.00;100241.94;4936743;29;20443;-71
2022/10/15 01:34:52;;;;;;;31.75;18.55;;;;;;;12.58;100.00;100247.09;4938447;29;20081;-70
2022/10/15 01:37:22;;;;;;;42.00;21.70;;;;;;;12.60;100.00;100236.94;4953658;29;20038;-71
2022/10/15 01:40:01;;;;;;;39.92;20.27;;;;;;;12.60;100.00;100231.53;4936421;29;20035;-70
2022/10/15 01:42:31;;;;;;;38.97;19.83;;;;;;;12.43;100.00;100207.84;4953618;29;20035;-71
2022/10/15 01:45:06;;;;;;;37.13;19.88;;;;;;;12.59;100.00;100235.28;4953593;29;20034;-71
2022/10/15 01:47:36;;;;;;;38.85;21.13;;;;;;;12.56;100.00;100239.25;4935862;29;20482;-71
2022/10/15 01:50:05;;;;;;;42.03;22.10;;;;;;;12.53;100.00;100228.09;4953514;28;20177;-71
2022/10/15 01:52:36;;;;;;;43.95;21.90;;;;;;;12.55;100.00;100223.28;4952446;29;20042;-71
2022/10/15 01:55:04;;;;;;;40.70;21.60;;;;;;;12.58;100.00;100220.97;4953563;29;20445;-71
2022/10/15 01:57:32;;;;;;;42.15;22.05;;;;;;;12.61;100.00;100220.50;4935630;29;20035;-71
2022/10/15 01:59:57;;;;;;;41.50;22.80;;;;;;;12.64;100.00;100211.94;4936144;29;20418;-71
2022/10/15 02:02:23;;;;;;;44.97;24.38;;;;;;;12.67;100.00;100207.97;4936081;29;20035;-71
2022/10/15 02:04:49;;;;;;;46.97;23.83;;;;;;;12.55;100.00;100172.84;4936252;29;20034;-71
2022/10/15 02:07:42;;;;;;;47.95;25.23;;;;;;;12.75;100.00;100196.03;4935804;29;20039;-71
2022/10/15 02:10:16;;;;;;;47.72;24.33;;;;;;;12.75;100.00;100191.47;4935812;28;20043;-71
2022/10/15 02:12:51;;;;;;;49.78;24.88;;;;;;;12.78;100.00;100185.63;4921146;29;20062;-71
2022/10/15 02:15:34;;;;;;;48.03;24.70;;;;;;;12.77;100.00;100186.66;4953262;29;20027;-71
2022/10/15 02:18:05;;;;;;;44.80;24.58;;;;;;;12.68;100.00;100163.72;4935934;29;20102;-71
2022/10/15 02:20:51;;;;;;;48.13;25.40;;;;;;;12.78;100.00;100168.56;4952965;29;20045;-71
2022/10/15 02:23:23;;;;;;;49.03;25.92;;;;;;;12.78;100.00;100174.81;4953051;28;20033;-71
2022/10/15 02:25:51;;;;;;;47.97;25.02;;;;;;;12.77;100.00;100165.06;4935724;29;20086;-71
2022/10/15 02:28:17;;;;;;;50.65;25.48;;;;;;;12.82;100.00;100173.31;4952921;29;20051;-71
2022/10/15 02:30:47;;;;;;;50.28;25.38;;;;;;;12.85;100.00;100169.31;4953482;29;20055;-71
2022/10/15 02:33:15;;;;;;;48.03;24.95;;;;;;;12.88;100.00;100169.69;4935813;29;20039;-71
2022/10/15 02:35:43;;;;;;;51.42;26.60;;;;;;;12.89;100.00;100171.31;4952690;28;20043;-71
2022/10/15 02:38:13;;;;;;;54.45;29.05;;;;;;;12.85;100.00;100155.81;4935770;29;20490;-71
2022/10/15 02:40:41;;;;;;;51.65;27.50;;;;;;;12.89;100.00;100154.31;4937504;29;20038;-71
2022/10/15 02:43:09;;;;;;;56.03;28.90;;;;;;;12.92;100.00;100162.78;4935786;29;20031;-71
2022/10/15 02:45:35;;;;;;;56.38;29.65;;;;;;;12.92;100.00;100154.66;4935657;29;20042;-71
2022/10/15 02:48:01;;;;;;;60.08;31.20;;;;;;;12.93;100.00;100152.78;4952988;28;20048;-70
2022/10/15 02:50:26;;;;;;;57.00;30.67;;;;;;;12.94;100.00;100144.44;4935553;29;20043;-71
2022/10/15 02:52:52;;;;;;;55.78;31.60;;;;;;;12.91;100.00;100138.69;4935522;29;20078;-71
2022/10/15 02:55:17;;;;;;;60.50;32.28;;;;;;;12.76;100.00;100117.53;4935664;29;20039;-71
2022/10/15 02:57:42;;;;;;;61.65;32.45;;;;;;;12.89;100.00;100138.09;4935602;29;20039;-71
2022/10/15 03:00:08;;;;;;;58.20;32.72;;;;;;;12.88;100.00;100131.03;4952713;28;20047;-71
2022/10/15 03:02:34;;;;;;;52.83;31.55;;;;;;;12.90;100.00;100137.03;4952692;28;20046;-71
2022/10/15 03:04:59;;;;;;;57.97;31.38;;;;;;;12.89;100.00;100124.59;4939155;29;20047;-71
2022/10/15 03:07:25;;;;;;;55.13;31.55;;;;;;;12.90;100.00;100131.63;4956485;29;20075;-71
2022/10/15 03:09:50;;;;;;;52.42;30.67;;;;;;;12.91;100.00;100122.47;4956228;29;20398;-71
2022/10/15 03:12:15;;;;;;;60.92;32.53;;;;;;;12.91;100.00;100127.88;4938906;29;20110;-71
2022/10/15 03:14:41;;;;;;;61.80;32.03;;;;;;;12.90;100.00;100121.66;4938970;29;20043;-70
2022/10/15 03:17:06;;;;;;;52.78;30.98;;;;;;;12.91;100.00;100126.03;4956175;29;20035;-71
2022/10/15 03:19:32;;;;;;;54.47;30.33;;;;;;;12.90;100.00;100121.66;4956228;29;20094;-71
2022/10/15 03:21:57;;;;;;;56.88;31.88;;;;;;;12.89;100.00;100111.09;4956142;29;20039;-71
2022/10/15 03:24:23;;;;;;;57.33;31.27;;;;;;;12.91;100.00;100103.56;4955789;28;20542;-71
2022/10/15 03:26:48;;;;;;;52.53;30.27;;;;;;;12.89;100.00;100094.91;4955816;29;20039;-71
2022/10/15 03:29:13;;;;;;;56.90;29.70;;;;;;;12.78;100.00;100068.69;4938893;29;20522;-71
2022/10/15 03:31:39;;;;;;;55.80;30.40;;;;;;;12.92;100.00;100097.16;4955422;29;20094;-71
2022/10/15 03:34:04;;;;;;;61.95;30.50;;;;;;;12.92;100.00;100095.25;4922983;29;20406;-71
2022/10/15 03:36:30;;;;;;;58.00;30.63;;;;;;;12.92;100.00;100087.16;4955989;28;20513;-71
2022/10/15 03:38:55;;;;;;;55.08;30.27;;;;;;;12.94;100.00;100086.91;4938704;29;20050;-71
2022/10/15 03:41:20;;;;;;;58.95;30.40;;;;;;;12.98;100.00;100087.28;4938519;29;20122;-71
2022/10/15 03:43:46;;;;;;;55.17;29.63;;;;;;;12.99;100.00;100089.75;4938420;29;20130;-71
2022/10/15 03:46:11;;;;;;;59.42;30.05;;;;;;;13.01;100.00;100082.22;4938286;29;20046;-70
2022/10/15 03:48:37;;;;;;;58.25;30.25;;;;;;;12.92;100.00;100070.13;4938530;29;20039;-71
2022/10/15 03:51:02;;;;;;;64.60;31.55;;;;;;;13.01;100.00;100068.72;4955473;29;20102;-71
2022/10/15 03:53:28;;;;;;;63.08;31.25;;;;;;;13.06;100.00;100082.38;4955420;28;20041;-71
2022/10/15 03:55:53;;;;;;;63.17;31.55;;;;;;;13.06;100.00;100079.66;4955676;29;20046;-71
2022/10/15 03:58:18;;;;;;;62.83;30.77;;;;;;;13.07;100.00;100075.91;4955266;29;20036;-71
2022/10/15 04:00:44;;;;;;;60.17;29.35;;;;;;;13.07;100.00;100073.19;4955424;29;20118;-71
2022/10/15 04:03:10;;;;;;;67.07;30.67;;;;;;;12.99;100.00;100061.94;4919076;29;20035;-71
2022/10/15 04:05:35;;;;;;;62.03;29.15;;;;;;;13.03;100.00;100068.50;4947138;29;20136;-71
2022/10/15 04:08:02;;;;;;;60.17;28.48;;;;;;;13.01;100.00;100067.91;4955507;29;20043;-71
2022/10/15 04:10:28;;;;;;;66.35;29.75;;;;;;;13.03;100.00;100066.63;4955078;29;20137;-71
2022/10/15 04:12:54;;;;;;;61.17;29.13;;;;;;;13.00;100.00;100064.38;4955276;29;20031;-70
2022/10/15 04:15:19;;;;;;;56.30;29.25;;;;;;;12.96;100.00;100055.09;4936616;29;20038;-70
2022/10/15 04:17:45;;;;;;;60.03;27.83;;;;;;;12.97;100.00;100045.13;4937702;29;20079;-71
2022/10/15 04:20:10;;;;;;;54.08;26.08;;;;;;;13.01;100.00;100068.72;4937779;29;20039;-70
2022/10/15 04:22:36;;;;;;;57.20;27.70;;;;;;;12.87;100.00;100046.50;4937803;29;20062;-70
2022/10/15 04:25:02;;;;;;;62.10;28.00;;;;;;;12.85;100.00;100045.94;4955115;29;20046;-70
2022/10/15 04:27:29;;;;;;;54.88;25.30;;;;;;;12.99;100.00;100064.63;4918448;29;20060;-71
2022/10/15 04:29:54;;;;;;;51.60;24.65;;;;;;;12.83;100.00;100045.34;4948844;29;20043;-71
2022/10/15 04:32:20;;;;;;;48.60;24.20;;;;;;;12.93;100.00;100061.78;4919825;29;20048;-70
2022/10/15 04:34:46;;;;;;;52.42;25.42;;;;;;;12.81;100.00;100041.22;4937840;29;20027;-69
2022/10/15 04:37:12;;;;;;;53.30;26.10;;;;;;;12.97;100.00;100077.53;4954890;29;20035;-72
2022/10/15 04:39:37;;;;;;;53.15;25.13;;;;;;;12.94;100.00;100068.84;4954928;29;20039;-70
2022/10/15 04:42:03;;;;;;;54.30;24.65;;;;;;;12.96;100.00;100057.81;4937391;29;20098;-70
2022/10/15 04:44:28;;;;;;;51.28;24.63;;;;;;;12.97;100.00;100062.16;4920338;29;20467;-70
2022/10/15 04:46:54;;;;;;;46.20;22.65;;;;;;;12.94;100.00;100058.03;4937484;29;20423;-70
2022/10/15 04:49:19;;;;;;;47.50;23.42;;;;;;;12.93;100.00;100050.16;4921580;29;20031;-70
2022/10/15 04:51:44;;;;;;;46.33;22.35;;;;;;;12.80;100.00;100032.31;4954459;28;20023;-70
2022/10/15 04:54:10;;;;;;;42.83;23.30;;;;;;;12.89;100.00;100055.22;4937237;29;20122;-70
2022/10/15 04:56:36;;;;;;;43.28;22.00;;;;;;;12.82;100.00;100040.19;4954273;29;20475;-70
2022/10/15 04:59:06;;;;;;;45.95;22.88;;;;;;;12.92;100.00;100051.25;4954276;28;20121;-70
2022/10/15 05:01:31;;;;;;;47.75;21.85;;;;;;;12.91;100.00;100054.97;4954280;29;20058;-71
2022/10/15 05:03:56;;;;;;;42.22;23.08;;;;;;;12.91;100.00;100061.22;4937111;29;20134;-70
2022/10/15 05:06:22;;;;;;;48.45;22.77;;;;;;;12.92;100.00;100049.34;4954215;29;20094;-71
2022/10/15 05:08:48;;;;;;;46.85;23.55;;;;;;;12.95;100.00;100056.19;4954271;28;20031;-70
2022/10/15 05:11:17;;;;;;;50.78;24.48;;;;;;;12.96;100.00;100055.09;4936798;29;20121;-70
2022/10/15 05:13:43;;;;;;;44.33;24.30;;;;;;;12.97;100.00;100066.72;4937101;29;20160;-70
2022/10/15 05:16:14;;;;;;;52.22;25.67;;;;;;;12.98;100.00;100055.72;4936857;29;20114;-70
2022/10/15 05:18:41;;;;;;;58.70;26.95;;;;;;;12.99;100.00;100061.94;4938295;29;20037;-70
2022/10/15 05:21:07;;;;;;;53.67;26.98;;;;;;;13.01;100.00;100057.91;4953903;29;20033;-70
2022/10/15 05:23:32;;;;;;;57.58;28.67;;;;;;;12.94;100.00;100041.81;4940921;29;20118;-71
2022/10/15 05:26:00;;;;;;;62.00;30.40;;;;;;;13.03;100.00;100057.69;4954331;28;20092;-71
2022/10/15 05:28:28;;;;;;;64.85;31.23;;;;;;;13.05;100.00;100063.69;4936340;29;20117;-71
2022/10/15 05:30:53;;;;;;;70.70;32.72;;;;;;;13.04;100.00;100057.44;4953872;29;20039;-71
2022/10/15 05:33:19;;;;;;;78.60;32.53;;;;;;;13.05;100.00;100059.13;4936527;29;20039;-71
2022/10/15 05:35:45;;;;;;;81.63;33.92;;;;;;;13.05;100.00;100058.31;4953780;29;20126;-71
2022/10/15 05:38:10;;;;;;;87.05;35.58;;;;;;;13.08;100.00;100063.25;4953536;29;20114;-71
2022/10/15 05:40:35;;;;;;;82.32;34.15;;;;;;;13.07;100.00;100062.38;4936435;29;20062;-71
2022/10/15 05:43:01;;;;;;;78.00;34.03;;;;;;;13.10;100.00;100056.53;4920586;29;20565;-68
2022/10/15 05:45:26;;;;;;;81.00;35.17;;;;;;;13.11;100.00;100057.34;4954133;29;20078;-70
2022/10/15 05:47:55;;;;;;;82.20;35.35;;;;;;;13.14;100.00;100063.13;4936384;29;20524;-69
2022/10/15 05:50:23;;;;;;;87.38;35.30;;;;;;;13.11;100.00;100058.19;4953328;29;20043;-69
2022/10/15 05:52:49;;;;;;;83.60;35.25;;;;;;;13.15;100.00;100066.66;4936395;29;20059;-66
2022/10/15 05:55:14;;;;;;;81.18;35.13;;;;;;;13.12;100.00;100061.72;4922376;29;20077;-69
2022/10/15 05:57:40;;;;;;;79.50;34.85;;;;;;;13.13;100.00;100064.16;4957714;28;20540;-66
2022/10/15 06:00:06;;;;;;;83.57;34.78;;;;;;;13.12;100.00;100065.22;4958219;29;20035;-69
2022/10/15 06:02:31;;;;;;;87.53;35.38;;;;;;;13.14;100.00;100065.81;4956839;28;20042;-65
2022/10/15 06:04:57;;;;;;;83.15;35.83;;;;;;;13.16;100.00;100066.41;4956397;29;20027;-67
2022/10/15 06:07:22;;;;;;;85.60;35.95;;;;;;;13.17;100.00;100068.03;4923297;29;20031;-66
2022/10/15 06:09:47;;;;;;;82.53;33.72;;;;;;;13.00;100.00;100042.78;4956162;28;20158;-67
2022/10/15 06:12:13;;;;;;;77.82;32.90;;;;;;;13.19;100.00;100075.09;4938273;29;20035;-67
2022/10/15 06:14:38;;;;;;;82.82;35.20;;;;;;;13.19;100.00;100072.41;4954169;29;20050;-68
2022/10/15 06:17:04;;;;;;;82.72;34.03;;;;;;;13.21;100.00;100079.22;4938526;29;20160;-68
2022/10/15 06:19:30;;;;;;;80.38;33.88;;;;;;;13.22;100.00;100077.34;4955683;28;20043;-68
2022/10/15 06:21:56;;;;;;;71.88;32.85;;;;;;;13.11;100.00;100062.75;4918672;29;20063;-69
2022/10/15 06:24:22;;;;;;;75.07;31.58;;;;;;;13.06;100.00;100066.16;4935621;29;20031;-68
2022/10/15 06:26:47;;;;;;;61.28;28.45;;;;;;;13.21;100.00;100086.47;4954771;28;20062;-65
2022/10/15 06:29:12;;;;;;;54.10;25.98;;;;;;;13.21;100.00;100087.31;4956601;29;20422;-66
2022/10/15 06:31:38;;;;;;;43.00;21.98;;;;;;;13.21;100.00;100089.19;4938469;29;20537;-68
2022/10/15 06:34:03;;;;;;;34.53;19.20;;;;;;;13.19;100.00;100080.50;4937785;29;20071;-67
2022/10/15 06:36:28;;;;;;;33.10;17.02;;;;;;;13.15;100.00;100083.66;4954494;29;20061;-67
2022/10/15 06:38:54;;;;;;;30.33;17.15;;;;;;;13.10;100.00;100083.53;4938587;29;20039;-67
2022/10/15 06:41:19;;;;;;;31.30;16.05;;;;;;;13.08;100.00;100084.84;4957825;29;20569;-67
2022/10/15 06:43:48;;;;;;;32.20;15.00;;;;;;;13.07;100.00;100088.59;4940471;29;20043;-66
2022/10/15 06:46:15;;;;;;;31.70;15.98;;;;;;;13.03;100.00;100087.41;4920976;29;20039;-66
2022/10/15 06:48:41;;;;;;;30.90;15.65;;;;;;;13.01;100.00;100090.31;4941579;29;20488;-66
2022/10/15 06:51:09;;;;;;;31.30;15.18;;;;;;;12.99;100.00;100076.25;4958364;29;20046;-66
2022/10/15 06:53:35;;;;;;;26.55;13.68;;;;;;;13.01;100.00;100090.31;4957527;29;20061;-66
2022/10/15 06:56:02;;;;;;;24.38;12.52;;;;;;;13.03;100.00;100082.00;4957640;28;20038;-66
2022/10/15 06:58:27;;;;;;;24.55;11.50;;;;;;;13.06;100.00;100086.94;4940739;29;20038;-66
2022/10/15 07:00:59;;;;;;;21.50;11.20;;;;;;;12.99;100.00;100070.03;4957272;29;20027;-66
2022/10/15 07:03:24;;;;;;;19.75;11.48;;;;;;;13.19;100.00;100094.00;4939365;29;20090;-66
2022/10/15 07:05:50;;;;;;;18.67;10.55;;;;;;;13.14;100.00;100078.47;4956818;29;20047;-67
2022/10/15 07:08:15;;;;;;;20.95;10.68;;;;;;;13.34;100.00;100094.38;4956741;29;20118;-66
2022/10/15 07:10:40;;;;;;;20.25;10.73;;;;;;;13.43;100.00;100102.97;4941743;29;20130;-67
2022/10/15 07:13:06;;;;;;;20.60;10.60;;;;;;;13.45;100.00;100106.28;4958062;29;20069;-67
2022/10/15 07:15:32;;;;;;;17.33;9.80;;;;;;;13.49;100.00;100105.56;4940319;29;20098;-67
2022/10/15 07:18:00;;;;;;;17.85;9.65;;;;;;;13.54;100.00;100112.94;4958245;29;20031;-67
2022/10/15 07:20:28;;;;;;;19.05;9.38;;;;;;;13.43;100.00;100092.97;4957557;29;20102;-68
2022/10/15 07:22:58;;;;;;;17.83;8.25;;;;;;;13.60;100.00;100114.72;4957204;28;20398;-67
2022/10/15 07:25:24;;;;;;;14.57;7.90;;;;;;;13.58;100.00;100123.06;4956865;29;20061;-67
2022/10/15 07:27:50;;;;;;;12.45;6.97;;;;;;;13.58;100.00;100123.06;4939930;29;20059;-67
2022/10/15 07:30:16;;;;;;;14.35;7.10;;;;;;;13.52;100.00;100112.38;4939217;29;20031;-70
2022/10/15 07:32:42;;;;;;;11.48;6.75;;;;;;;13.60;100.00;100129.06;4940506;29;20042;-66
2022/10/15 07:35:08;;;;;;;13.88;6.60;;;;;;;13.55;100.00;100126.25;4956031;29;20043;-67
2022/10/15 07:37:33;;;;;;;12.45;6.68;;;;;;;13.52;100.00;100126.72;4938884;29;20041;-67
2022/10/15 07:39:59;;;;;;;15.65;6.43;;;;;;;13.48;100.00;100130.94;4956299;29;20043;-67
2022/10/15 07:42:24;;;;;;;10.70;6.43;;;;;;;13.26;100.00;100116.38;4955967;29;20058;-66
2022/10/15 07:44:50;;;;;;;9.95;5.80;;;;;;;12.99;100.00;100081.66;4956350;28;20031;-67
2022/10/15 07:47:15;;;;;;;13.82;6.20;;;;;;;13.37;100.00;100147.97;4956212;29;20036;-67
2022/10/15 07:49:41;;;;;;;13.63;6.38;;;;;;;13.36;100.00;100149.03;4923011;29;20039;-67
2022/10/15 07:52:09;;;;;;;11.32;6.82;;;;;;;13.19;100.00;100123.72;4920107;29;20054;-67
2022/10/15 07:54:34;;;;;;;10.63;6.10;;;;;;;13.30;100.00;100150.78;4938048;29;20035;-67
2022/10/15 07:57:00;;;;;;;14.23;7.07;;;;;;;13.29;100.00;100148.31;4938494;29;20031;-66
2022/10/15 07:59:28;;;;;;;15.85;6.10;;;;;;;13.27;100.00;100153.94;4938172;29;20051;-67
2022/10/15 08:01:53;;;;;;;14.95;7.20;;;;;;;13.25;100.00;100153.38;4955534;28;20087;-67
2022/10/15 08:04:19;;;;;;;11.98;7.07;;;;;;;13.27;100.00;100155.81;4937883;29;20497;-67
2022/10/15 08:06:45;;;;;;;13.07;7.05;;;;;;;13.27;100.00;100159.34;4938179;28;20058;-67
2022/10/15 08:09:10;;;;;;;12.98;7.18;;;;;;;13.21;100.00;100146.75;4955350;29;20513;-68
2022/10/15 08:11:36;;;;;;;10.88;7.35;;;;;;;13.35;100.00;100160.91;4954899;28;20035;-68
2022/10/15 08:14:02;;;;;;;11.90;7.60;;;;;;;13.37;100.00;100172.28;4955164;29;20039;-67
2022/10/15 08:16:30;;;;;;;16.10;8.10;;;;;;;13.48;100.00;100173.38;4937831;29;20355;-67
2022/10/15 08:18:57;;;;;;;14.40;8.45;;;;;;;13.59;100.00;100167.16;4937811;28;20038;-67
2022/10/15 08:21:22;;;;;;;17.00;9.55;;;;;;;13.92;100.00;100176.53;4937909;29;20031;-67
2022/10/15 08:23:48;;;;;;;16.35;8.15;;;;;;;14.09;100.00;100178.28;4954906;29;20043;-68
2022/10/15 08:26:13;;;;;;;11.55;7.28;;;;;;;14.24;100.00;100169.69;4937627;29;20077;-68
2022/10/15 08:28:38;;;;;;;11.85;6.75;;;;;;;14.30;100.00;100159.75;4937705;29;20035;-68
2022/10/15 08:31:05;;;;;;;10.88;6.38;;;;;;;14.27;100.00;100168.34;4955110;29;20434;-67
2022/10/15 08:33:31;;;;;;;9.38;5.80;;;;;;;14.17;100.00;100158.16;4937363;29;20098;-67
2022/10/15 08:35:56;;;;;;;8.52;5.05;;;;;;;14.25;100.00;100182.13;4954925;29;20038;-67
2022/10/15 08:38:22;;;;;;;9.00;4.80;;;;;;;14.20;100.00;100184.72;4954612;29;20550;-67
2022/10/15 08:41:18;;;;;;;7.38;3.50;;;;;;;14.15;100.00;100184.63;4937704;29;20042;-67
2022/10/15 08:43:46;;;;;;;7.85;3.58;;;;;;;14.07;100.00;100184.97;4937348;29;20517;-67
2022/10/15 08:46:19;;;;;;;10.30;3.10;;;;;;;14.15;100.00;100192.75;4937382;29;20066;-67
2022/10/15 08:48:52;;;;;;;7.15;2.85;;;;;;;14.28;100.00;100191.66;4921922;29;20634;-66
2022/10/15 08:51:20;;;;;;;5.80;2.30;;;;;;;14.27;100.00;100195.41;4937381;29;20105;-67
2022/10/15 08:53:55;;;;;;;3.78;1.80;;;;;;;14.25;100.00;100194.84;4954308;29;20517;-67
2022/10/15 08:56:46;;;;;;;3.85;1.58;;;;;;;14.30;100.00;100197.66;4954454;29;20039;-67
2022/10/15 08:59:14;;;;;;;4.70;1.50;;;;;;;14.37;100.00;100211.06;4876436;29;20056;-67
2022/10/15 09:01:48;;;;;;;5.55;1.58;;;;;;;14.29;100.00;100209.53;4886668;29;20048;-67
2022/10/15 09:04:29;;;;;;;6.13;1.30;;;;;;;14.31;100.00;100210.13;4895200;29;20068;-68
2022/10/15 09:07:09;;;;;;;4.10;1.58;;;;;;;14.36;100.00;100215.66;4883936;29;20033;-67
2022/10/15 09:10:01;;;;;;;3.22;1.48;;;;;;;14.31;100.00;100207.44;4895281;29;20048;-67
2022/10/15 09:12:53;;;;;;;4.65;1.75;;;;;;;14.27;100.00;100207.09;4879349;29;20036;-67
2022/10/15 09:15:24;;;;;;;3.80;2.00;;;;;;;14.30;100.00;100220.16;4895043;29;20187;-67
2022/10/15 09:17:53;;;;;;;5.60;2.50;;;;;;;14.27;100.00;100214.34;4879703;29;20307;-67
2022/10/15 09:20:29;;;;;;;4.50;2.40;;;;;;;14.12;100.00;100203.22;4894740;29;20100;-68
2022/10/15 09:22:55;;;;;;;3.70;2.10;;;;;;;14.23;100.00;100221.31;4894908;29;20036;-67
2022/10/15 09:25:22;;;;;;;4.85;2.10;;;;;;;14.23;100.00;100227.53;4894835;29;20092;-67
2022/10/15 09:27:48;;;;;;;4.05;2.17;;;;;;;14.33;100.00;100227.75;4878733;29;20591;-68
2022/10/15 09:30:42;;;;;;;7.85;2.90;;;;;;;14.36;100.00;100218.34;4926215;29;20426;-68
2022/10/15 09:33:17;;;;;;;3.92;1.52;;;;;;;14.49;100.00;100230.81;4924227;29;20042;-68
2022/10/15 09:35:45;;;;;;;;;;;;;;;14.43;100.00;100235.28;4937028;29;20501;-67
2022/10/15 09:38:41;;;;;;;4.03;1.35;;;;;;;14.38;100.00;100232.47;4936475;29;19919;-68
2022/10/15 09:41:40;;;;;;;6.38;1.75;;;;;;;14.43;100.00;100227.16;4941238;29;20260;-68
2022/10/15 09:44:12;;;;;;;4.85;1.38;;;;;;;14.39;100.00;100217.88;4936263;29;20027;-68
2022/10/15 09:46:46;;;;;;;4.93;1.33;;;;;;;14.60;100.00;100227.25;4936085;29;23018;-69
2022/10/15 09:49:26;;;;;;;6.93;1.23;;;;;;;14.68;100.00;100229.63;4936314;29;20035;-69
2022/10/15 09:52:09;;;;;;;5.38;1.27;;;;;;;14.69;100.00;100230.44;4936333;29;20039;-69
2022/10/15 09:54:35;;;;;;;15.10;5.70;;;;;;;14.78;100.00;100227.09;4936080;29;20035;-68
2022/10/15 09:57:00;;;;;;;13.05;4.75;;;;;;;14.76;100.00;100225.69;4936197;29;20445;-69
2022/10/15 09:59:26;;;;;;;10.93;2.90;;;;;;;14.54;100.00;100201.19;4917365;29;20032;-70
2022/10/15 10:01:59;;;;;;;7.60;1.90;;;;;;;14.67;98.83;100232.53;4946631;29;20122;-69
2022/10/15 10:04:37;;;;;;;5.97;2.25;;;;;;;14.62;98.46;100227.03;4953061;29;20031;-69
2022/10/15 10:07:08;;;;;;;5.47;1.50;;;;;;;14.74;98.34;100228.66;4936392;29;20035;-70
2022/10/15 10:09:37;;;;;;;8.45;1.50;;;;;;;14.69;98.21;100225.00;4953110;29;20077;-69
2022/10/15 10:12:06;;;;;;;7.18;1.73;;;;;;;14.68;98.20;100237.72;4935796;28;20110;-69
2022/10/15 10:14:37;;;;;;;8.80;1.60;;;;;;;14.70;97.86;100232.06;4935454;29;20027;-69
2022/10/15 10:17:24;;;;;;;7.80;1.20;;;;;;;14.65;96.41;100230.09;4953148;29;20031;-69
2022/10/15 10:20:01;;;;;;;8.18;2.17;;;;;;;14.54;96.18;100229.06;4953168;29;20117;-69
2022/10/15 10:22:27;;;;;;;7.00;1.73;;;;;;;14.54;95.54;100229.06;4935931;29;20117;-69
2022/10/15 10:24:52;;;;;;;6.90;1.70;;;;;;;14.52;95.95;100231.19;4953170;29;20106;-69
2022/10/15 10:27:24;;;;;;;6.65;1.88;;;;;;;14.44;95.21;100222.59;4935647;29;20047;-69
2022/10/15 10:30:01;;;;;;;9.63;1.70;;;;;;;14.57;95.82;100239.41;4952967;29;20490;-69
2022/10/15 10:32:47;;;;;;;20.70;10.88;;;;;;;14.57;94.80;100239.41;4952625;28;20035;-69
2022/10/15 10:35:20;;;;;;;10.50;4.03;;;;;;;14.58;96.05;100234.81;4877885;29;20079;-69
2022/10/15 10:37:47;;;;;;;8.85;2.50;;;;;;;14.73;95.91;100245.94;4893903;29;20051;-69
2022/10/15 10:40:27;;;;;;;8.43;1.80;;;;;;;14.94;95.39;100247.19;4893799;29;20093;-69
2022/10/15 10:43:15;;;;;;;8.15;1.70;;;;;;;14.93;94.27;100240.13;4879443;29;20029;-69
2022/10/15 10:46:01;;;;;;;7.25;1.90;;;;;;;14.85;94.58;100223.44;4893704;29;20044;-69
2022/10/15 10:48:48;;;;;;;5.65;2.00;;;;;;;14.98;95.71;100258.38;4893591;29;20115;-69
2022/10/15 10:51:23;;;;;;;10.18;2.75;;;;;;;14.79;95.94;100255.00;4874676;29;20086;-69
2022/10/15 10:53:58;;;;;;;10.43;2.22;;;;;;;14.49;97.26;100242.44;4874973;29;20497;-69
2022/10/15 10:56:38;;;;;;;7.68;1.83;;;;;;;14.50;97.89;100257.69;4862474;29;20041;-69
2022/10/15 10:59:12;;;;;;;9.20;2.40;;;;;;;14.48;98.22;100256.25;4874893;29;20046;-69
2022/10/15 11:01:38;;;;;;;9.57;2.20;;;;;;;14.36;99.26;100247.31;4859538;29;20405;-68
2022/10/15 11:04:08;;;;;;;6.03;2.10;;;;;;;14.46;99.74;100259.16;4859448;29;20044;-68
2022/10/15 11:06:55;;;;;;;8.18;2.13;;;;;;;14.35;99.31;100219.44;4898972;29;20056;-69
2022/10/15 11:09:35;;;;;;;6.95;2.22;;;;;;;14.72;97.47;100251.63;4893279;29;20036;-69
2022/10/15 11:12:28;;;;;;;6.97;2.60;;;;;;;14.82;96.76;100243.69;4906850;29;20127;-69
2022/10/15 11:15:26;;;;;;;7.82;2.30;;;;;;;14.89;96.48;100267.94;4882057;29;20111;-69
2022/10/15 11:18:00;;;;;;;5.82;2.17;;;;;;;14.89;96.92;100266.03;4912490;29;20040;-69